createdAt,value
2022-09-25T00:00:32.200Z, 32.50
2022-09-25T00:01:32.330Z, 32.49
2022-09-25T00:02:32.353Z, 32.51
2022-09-25T00:03:32.285Z, 32.47
2022-09-25T00:04:32.288Z, 32.50
2022-09-25T00:05:32.401Z, 32.50
2022-09-25T00:06:32.352Z, 32.49
2022-09-25T00:07:32.377Z, 32.48
2022-09-25T00:08:32.406Z, 32.49
2022-09-25T00:09:32.445Z, 32.45
2022-09-25T00:10:32.520Z, 32.43
2022-09-25T00:11:32.519Z, 32.38
2022-09-25T00:12:32.535Z, 32.39
2022-09-25T00:13:32.595Z, 32.39
2022-09-25T00:14:32.605Z, 32.33
2022-09-25T00:15:32.652Z, 32.35
2022-09-25T00:16:32.915Z, 32.41
2022-09-25T00:17:32.725Z, 32.33
2022-09-25T00:18:32.763Z, 32.34
2022-09-25T00:19:32.816Z, 32.35
2022-09-25T00:20:32.862Z, 32.32
2022-09-25T00:21:32.869Z, 32.34
2022-09-25T00:22:32.864Z, 32.33
2022-09-25T00:23:32.957Z, 32.31
2022-09-25T00:24:32.993Z, 32.31
2022-09-25T00:25:32.977Z, 32.31
2022-09-25T00:26:33.071Z, 32.26
2022-09-25T00:27:33.043Z, 32.27
2022-09-25T00:28:33.123Z, 32.23
2022-09-25T00:29:33.152Z, 32.22
2022-09-25T00:30:33.212Z, 32.20
2022-09-25T00:31:33.210Z, 32.18
2022-09-25T00:32:33.233Z, 32.20
2022-09-25T00:33:33.294Z, 32.23
2022-09-25T00:34:33.345Z, 32.20
2022-09-25T00:35:33.329Z, 32.27
2022-09-25T00:36:33.338Z, 32.25
2022-09-25T00:37:33.435Z, 32.23
2022-09-25T00:38:33.472Z, 32.22
2022-09-25T00:39:33.489Z, 32.22
2022-09-25T00:40:33.528Z, 32.17
2022-09-25T00:41:33.506Z, 32.19
2022-09-25T00:42:33.526Z, 32.18
2022-09-25T00:43:33.571Z, 32.21
2022-09-25T00:44:33.663Z, 32.14
2022-09-25T00:45:33.652Z, 32.13
2022-09-25T00:46:33.746Z, 32.11
2022-09-25T00:47:33.711Z, 32.13
2022-09-25T00:48:33.744Z, 32.14
2022-09-25T00:49:33.835Z, 32.09
2022-09-25T00:50:33.834Z, 32.08
2022-09-25T00:51:33.847Z, 32.02
2022-09-25T00:52:33.874Z, 32.02
2022-09-25T00:53:33.914Z, 32.04
2022-09-25T00:54:33.953Z, 32.05
2022-09-25T00:55:33.987Z, 32.10
2022-09-25T00:56:34.025Z, 32.09
2022-09-25T00:57:34.035Z, 32.09
2022-09-25T00:58:34.130Z, 32.06
2022-09-25T00:59:34.121Z, 32.05
2022-09-25T01:00:34.242Z, 32.02
2022-09-25T01:01:34.288Z, 32.08
2022-09-25T01:02:34.283Z, 32.05
2022-09-25T01:03:34.237Z, 32.03
2022-09-25T01:04:34.267Z, 32.01
2022-09-25T01:05:34.310Z, 32.03
2022-09-25T01:06:34.370Z, 32.00
2022-09-25T01:07:34.377Z, 32.01
2022-09-25T01:08:34.476Z, 31.95
2022-09-25T01:09:34.488Z, 31.95
2022-09-25T01:10:34.468Z, 31.93
2022-09-25T01:11:34.481Z, 31.96
2022-09-25T01:12:34.521Z, 31.94
2022-09-25T01:13:34.603Z, 31.97
2022-09-25T01:14:34.633Z, 31.95
2022-09-25T01:15:34.643Z, 31.98
2022-09-25T01:16:34.728Z, 31.96
2022-09-25T01:17:34.763Z, 31.94
2022-09-25T01:18:34.740Z, 31.96
2022-09-25T01:19:34.763Z, 31.91
2022-09-25T01:20:34.801Z, 31.88
2022-09-25T01:21:34.874Z, 31.86
2022-09-25T01:22:34.917Z, 31.88
2022-09-25T01:23:34.967Z, 31.85
2022-09-25T01:24:34.952Z, 31.85
2022-09-25T01:25:34.976Z, 31.86
2022-09-25T01:26:35.057Z, 31.82
2022-09-25T01:27:35.105Z, 31.84
2022-09-25T01:28:35.106Z, 31.81
2022-09-25T01:29:35.151Z, 31.77
2022-09-25T01:30:35.206Z, 31.80
2022-09-25T01:31:35.159Z, 31.81
2022-09-25T01:32:35.189Z, 31.80
2022-09-25T01:33:35.220Z, 31.77
2022-09-25T01:34:35.239Z, 31.74
2022-09-25T01:35:35.278Z, 31.78
2022-09-25T01:36:35.328Z, 31.81
2022-09-25T01:37:35.384Z, 31.77
2022-09-25T01:38:35.420Z, 31.77
2022-09-25T01:39:35.445Z, 31.77
2022-09-25T01:40:35.517Z, 31.76
2022-09-25T01:41:35.502Z, 31.80
2022-09-25T01:42:35.557Z, 31.78
2022-09-25T01:43:35.579Z, 31.75
2022-09-25T01:44:35.615Z, 31.79
2022-09-25T01:45:35.896Z, 31.78
2022-09-25T01:46:35.743Z, 31.74
2022-09-25T01:47:35.719Z, 31.75
2022-09-25T01:48:35.750Z, 31.72
2022-09-25T01:49:35.834Z, 31.71
2022-09-25T01:50:35.866Z, 31.70
2022-09-25T01:51:35.830Z, 31.69
2022-09-25T01:52:35.877Z, 31.72
2022-09-25T01:53:35.909Z, 31.72
2022-09-25T01:54:35.937Z, 31.68
2022-09-25T01:55:35.975Z, 31.71
2022-09-25T01:56:36.064Z, 31.73
2022-09-25T01:57:36.057Z, 31.65
2022-09-25T01:58:36.072Z, 31.72
2022-09-25T01:59:36.122Z, 31.70
2022-09-25T02:00:36.155Z, 31.66
2022-09-25T02:01:36.273Z, 31.67
2022-09-25T02:02:36.335Z, 31.69
2022-09-25T02:03:36.260Z, 31.64
2022-09-25T02:04:36.318Z, 31.62
2022-09-25T02:05:36.320Z, 31.62
2022-09-25T02:06:36.369Z, 31.62
2022-09-25T02:07:36.417Z, 31.64
2022-09-25T02:08:36.478Z, 31.63
2022-09-25T02:09:36.485Z, 31.61
2022-09-25T02:10:36.562Z, 31.61
2022-09-25T02:11:36.550Z, 31.59
2022-09-25T02:12:36.549Z, 31.55
2022-09-25T02:13:36.581Z, 31.60
2022-09-25T02:14:36.629Z, 31.57
2022-09-25T02:15:36.728Z, 31.56
2022-09-25T02:16:36.791Z, 31.58
2022-09-25T02:17:36.731Z, 31.54
2022-09-25T02:18:36.763Z, 31.57
2022-09-25T02:19:36.851Z, 31.58
2022-09-25T02:20:36.831Z, 31.50
2022-09-25T02:21:36.841Z, 31.53
2022-09-25T02:22:36.882Z, 31.57
2022-09-25T02:23:37.015Z, 31.49
2022-09-25T02:24:36.991Z, 31.53
2022-09-25T02:25:36.991Z, 31.51
2022-09-25T02:26:37.058Z, 31.51
2022-09-25T02:27:37.048Z, 31.52
2022-09-25T02:28:37.067Z, 31.51
2022-09-25T02:29:37.108Z, 31.46
2022-09-25T02:30:37.289Z, 31.45
2022-09-25T02:31:37.185Z, 31.43
2022-09-25T02:32:37.207Z, 31.44
2022-09-25T02:33:37.304Z, 31.44
2022-09-25T02:34:37.295Z, 31.39
2022-09-25T02:35:37.308Z, 31.39
2022-09-25T02:36:37.335Z, 31.40
2022-09-25T02:37:37.364Z, 31.41
2022-09-25T02:38:37.410Z, 31.39
2022-09-25T02:39:37.452Z, 31.35
2022-09-25T02:40:37.587Z, 31.39
2022-09-25T02:41:37.522Z, 31.34
2022-09-25T02:42:37.622Z, 31.31
2022-09-25T02:43:37.623Z, 31.34
2022-09-25T02:44:37.782Z, 31.34
2022-09-25T02:45:37.863Z, 31.33
2022-09-25T02:46:37.776Z, 31.30
2022-09-25T02:47:37.782Z, 31.34
2022-09-25T02:48:37.776Z, 31.32
2022-09-25T02:49:37.795Z, 31.30
2022-09-25T02:50:37.827Z, 31.32
2022-09-25T02:51:37.888Z, 31.31
2022-09-25T02:52:37.894Z, 31.34
2022-09-25T02:53:37.934Z, 31.32
2022-09-25T02:54:37.961Z, 31.33
2022-09-25T02:55:38.004Z, 31.32
2022-09-25T02:56:38.107Z, 31.30
2022-09-25T02:57:38.084Z, 31.27
2022-09-25T02:58:38.112Z, 31.29
2022-09-25T02:59:38.123Z, 31.28
2022-09-25T03:00:38.157Z, 31.29
2022-09-25T03:01:38.241Z, 31.30
2022-09-25T03:02:38.256Z, 31.28
2022-09-25T03:03:38.311Z, 31.25
2022-09-25T03:04:38.340Z, 31.26
2022-09-25T03:05:38.326Z, 31.26
2022-09-25T03:06:38.333Z, 31.28
2022-09-25T03:07:38.370Z, 31.25
2022-09-25T03:08:38.419Z, 31.21
2022-09-25T03:09:38.506Z, 31.20
2022-09-25T03:10:38.494Z, 31.24
2022-09-25T03:11:38.545Z, 31.19
2022-09-25T03:12:38.559Z, 31.22
2022-09-25T03:13:38.637Z, 31.15
2022-09-25T03:14:38.642Z, 31.17
2022-09-25T03:15:38.667Z, 31.17
2022-09-25T03:16:38.781Z, 31.15
2022-09-25T03:17:38.737Z, 31.13
2022-09-25T03:18:38.833Z, 31.15
2022-09-25T03:19:38.823Z, 31.13
2022-09-25T03:20:38.914Z, 31.14
2022-09-25T03:21:38.909Z, 31.14
2022-09-25T03:22:38.902Z, 31.16
2022-09-25T03:23:38.914Z, 31.17
2022-09-25T03:24:38.971Z, 31.15
2022-09-25T03:25:39.049Z, 31.14
2022-09-25T03:26:39.041Z, 31.17
2022-09-25T03:27:39.104Z, 31.17
2022-09-25T03:28:39.099Z, 31.14
2022-09-25T03:29:39.210Z, 31.12
2022-09-25T03:30:39.172Z, 31.11
2022-09-25T03:31:39.192Z, 31.10
2022-09-25T03:32:39.279Z, 31.11
2022-09-25T03:33:39.310Z, 31.09
2022-09-25T03:34:39.337Z, 31.08
2022-09-25T03:35:39.337Z, 31.11
2022-09-25T03:36:39.347Z, 31.11
2022-09-25T03:37:39.435Z, 31.07
2022-09-25T03:38:39.432Z, 31.11
2022-09-25T03:39:39.457Z, 31.09
2022-09-25T03:40:39.550Z, 31.05
2022-09-25T03:41:39.567Z, 31.03
2022-09-25T03:42:39.576Z, 31.02
2022-09-25T03:43:39.595Z, 31.01
2022-09-25T03:44:39.685Z, 31.05
2022-09-25T03:45:39.786Z, 31.05
2022-09-25T03:46:39.887Z, 30.99
2022-09-25T03:47:39.754Z, 31.01
2022-09-25T03:48:39.816Z, 30.98
2022-09-25T03:49:39.880Z, 30.98
2022-09-25T03:50:39.863Z, 31.02
2022-09-25T03:51:39.865Z, 30.99
2022-09-25T03:52:39.895Z, 31.03
2022-09-25T03:53:39.925Z, 31.00
2022-09-25T03:54:39.961Z, 30.99
2022-09-25T03:55:40.039Z, 30.99
2022-09-25T03:56:40.084Z, 30.99
2022-09-25T03:57:40.190Z, 30.96
2022-09-25T03:58:40.126Z, 30.98
2022-09-25T03:59:40.125Z, 31.00
2022-09-25T04:00:40.141Z, 31.00
2022-09-25T04:01:40.321Z, 30.97
2022-09-25T04:02:40.372Z, 30.95
2022-09-25T04:03:40.252Z, 30.95
2022-09-25T04:04:40.292Z, 30.93
2022-09-25T04:05:40.330Z, 30.91
2022-09-25T04:06:40.350Z, 30.91
2022-09-25T04:07:40.413Z, 30.90
2022-09-25T04:08:40.410Z, 30.87
2022-09-25T04:09:40.448Z, 30.86
2022-09-25T04:10:40.483Z, 30.92
2022-09-25T04:11:40.550Z, 30.90
2022-09-25T04:12:40.572Z, 30.85
2022-09-25T04:13:40.604Z, 30.87
2022-09-25T04:14:40.687Z, 30.80
2022-09-25T04:15:40.716Z, 30.82
2022-09-25T04:16:40.756Z, 30.82
2022-09-25T04:17:40.780Z, 30.79
2022-09-25T04:18:40.779Z, 30.83
2022-09-25T04:19:40.786Z, 30.82
2022-09-25T04:20:40.819Z, 30.80
2022-09-25T04:21:40.859Z, 30.79
2022-09-25T04:22:40.958Z, 30.81
2022-09-25T04:23:40.945Z, 30.78
2022-09-25T04:24:41.040Z, 30.78
2022-09-25T04:25:41.029Z, 30.74
2022-09-25T04:26:41.055Z, 30.77
2022-09-25T04:27:41.096Z, 30.76
2022-09-25T04:28:41.134Z, 30.77
2022-09-25T04:29:41.157Z, 30.74
2022-09-25T04:30:41.180Z, 30.76
2022-09-25T04:31:41.304Z, 30.75
2022-09-25T04:32:41.280Z, 30.74
2022-09-25T04:33:41.295Z, 30.76
2022-09-25T04:34:41.332Z, 30.71
2022-09-25T04:35:41.427Z, 30.72
2022-09-25T04:36:41.471Z, 30.70
2022-09-25T04:37:41.476Z, 30.74
2022-09-25T04:38:41.463Z, 30.72
2022-09-25T04:39:41.503Z, 30.72
2022-09-25T04:40:41.641Z, 30.70
2022-09-25T04:41:41.596Z, 30.70
2022-09-25T04:42:41.611Z, 30.69
2022-09-25T04:43:41.774Z, 30.68
2022-09-25T04:44:41.777Z, 30.70
2022-09-25T04:45:41.781Z, 30.75
2022-09-25T04:46:41.903Z, 30.73
2022-09-25T04:47:41.766Z, 30.75
2022-09-25T04:48:41.808Z, 30.71
2022-09-25T04:49:41.843Z, 30.67
2022-09-25T04:50:41.965Z, 30.69
2022-09-25T04:51:41.979Z, 30.66
2022-09-25T04:52:42.011Z, 30.66
2022-09-25T04:53:42.028Z, 30.64
2022-09-25T04:54:42.069Z, 30.64
2022-09-25T04:55:42.045Z, 30.60
2022-09-25T04:56:42.085Z, 30.63
2022-09-25T04:57:58.291Z, 30.61
2022-09-25T04:58:42.164Z, 30.59
2022-09-25T04:59:42.255Z, 30.59
2022-09-25T05:00:42.232Z, 30.59
2022-09-25T05:01:42.467Z, 30.59
2022-09-25T05:02:42.402Z, 30.57
2022-09-25T05:03:42.338Z, 30.56
2022-09-25T05:04:42.339Z, 30.55
2022-09-25T05:05:42.425Z, 30.59
2022-09-25T05:06:42.468Z, 30.58
2022-09-25T05:07:42.507Z, 30.55
2022-09-25T05:08:42.524Z, 30.52
2022-09-25T05:09:42.505Z, 30.51
2022-09-25T05:10:42.605Z, 30.58
2022-09-25T05:11:42.645Z, 30.57
2022-09-25T05:12:42.620Z, 30.53
2022-09-25T05:13:42.627Z, 30.51
2022-09-25T05:14:42.661Z, 30.53
2022-09-25T05:15:42.748Z, 30.50
2022-09-25T05:16:42.828Z, 30.57
2022-09-25T05:17:42.750Z, 30.55
2022-09-25T05:18:42.794Z, 30.54
2022-09-25T05:19:42.856Z, 30.55
2022-09-25T05:20:42.926Z, 30.55
2022-09-25T05:21:42.926Z, 30.51
2022-09-25T05:22:42.934Z, 30.53
2022-09-25T05:23:42.963Z, 30.50
2022-09-25T05:24:43.010Z, 30.50
2022-09-25T05:25:43.120Z, 30.50
2022-09-25T05:26:43.096Z, 30.50
2022-09-25T05:27:43.110Z, 30.46
2022-09-25T05:28:43.173Z, 30.43
2022-09-25T05:29:43.184Z, 30.42
2022-09-25T05:30:43.247Z, 30.46
2022-09-25T05:31:43.280Z, 30.44
2022-09-25T05:32:43.271Z, 30.39
2022-09-25T05:33:43.309Z, 30.41
2022-09-25T05:34:43.339Z, 30.38
2022-09-25T05:35:43.371Z, 30.39
2022-09-25T05:36:43.484Z, 30.43
2022-09-25T05:37:43.492Z, 30.38
2022-09-25T05:38:43.467Z, 30.39
2022-09-25T05:39:43.574Z, 30.41
2022-09-25T05:40:43.671Z, 30.38
2022-09-25T05:41:43.585Z, 30.38
2022-09-25T05:42:43.641Z, 30.42
2022-09-25T05:43:43.631Z, 30.43
2022-09-25T05:44:43.649Z, 30.43
2022-09-25T05:45:43.865Z, 30.46
2022-09-25T05:46:43.750Z, 30.45
2022-09-25T05:47:43.800Z, 30.42
2022-09-25T05:48:43.766Z, 30.38
2022-09-25T05:49:43.794Z, 30.33
2022-09-25T05:50:43.861Z, 30.35
2022-09-25T05:51:43.856Z, 30.35
2022-09-25T05:52:43.973Z, 30.34
2022-09-25T05:53:43.950Z, 30.37
2022-09-25T05:54:43.952Z, 30.37
2022-09-25T05:55:44.010Z, 30.34
2022-09-25T05:56:44.023Z, 30.34
2022-09-25T05:57:44.103Z, 30.31
2022-09-25T05:58:44.088Z, 30.32
2022-09-25T05:59:44.171Z, 30.32
2022-09-25T06:00:44.209Z, 30.33
2022-09-25T06:01:44.267Z, 30.33
2022-09-25T06:02:44.225Z, 30.38
2022-09-25T06:03:44.223Z, 30.33
2022-09-25T06:04:44.341Z, 30.31
2022-09-25T06:05:44.324Z, 30.34
2022-09-25T06:06:44.356Z, 30.32
2022-09-25T06:07:44.406Z, 30.30
2022-09-25T06:08:44.428Z, 30.31
2022-09-25T06:09:44.435Z, 30.27
2022-09-25T06:10:44.478Z, 30.24
2022-09-25T06:11:44.604Z, 30.28
2022-09-25T06:12:44.589Z, 30.24
2022-09-25T06:13:44.599Z, 30.24
2022-09-25T06:14:44.638Z, 30.26
2022-09-25T06:15:44.712Z, 30.25
2022-09-25T06:16:44.702Z, 30.25
2022-09-25T06:17:44.720Z, 30.20
2022-09-25T06:18:44.759Z, 30.21
2022-09-25T06:19:44.791Z, 30.23
2022-09-25T06:20:44.829Z, 30.22
2022-09-25T06:21:44.904Z, 30.21
2022-09-25T06:22:44.920Z, 30.20
2022-09-25T06:23:44.932Z, 30.19
2022-09-25T06:24:45.008Z, 30.22
2022-09-25T06:25:45.045Z, 30.23
2022-09-25T06:26:45.038Z, 30.19
2022-09-25T06:27:45.057Z, 30.20
2022-09-25T06:28:45.086Z, 30.22
2022-09-25T06:29:45.119Z, 30.20
2022-09-25T06:30:45.152Z, 30.18
2022-09-25T06:31:45.298Z, 30.21
2022-09-25T06:32:45.232Z, 30.23
2022-09-25T06:33:45.253Z, 30.21
2022-09-25T06:34:45.275Z, 30.17
2022-09-25T06:35:45.308Z, 30.14
2022-09-25T06:36:45.340Z, 30.15
2022-09-25T06:37:45.409Z, 30.13
2022-09-25T06:38:45.395Z, 30.14
2022-09-25T06:39:45.447Z, 30.14
2022-09-25T06:40:45.573Z, 30.13
2022-09-25T06:41:45.511Z, 30.11
2022-09-25T06:42:45.558Z, 30.19
2022-09-25T06:43:45.591Z, 30.10
2022-09-25T06:44:45.697Z, 30.07
2022-09-25T06:45:45.677Z, 30.06
2022-09-25T06:46:45.719Z, 30.04
2022-09-25T06:47:45.765Z, 30.01
2022-09-25T06:48:45.737Z, 30.01
2022-09-25T06:49:45.778Z, 30.02
2022-09-25T06:50:45.806Z, 30.03
2022-09-25T06:51:45.869Z, 30.06
2022-09-25T06:52:45.863Z, 30.02
2022-09-25T06:53:45.894Z, 29.99
2022-09-25T06:54:45.952Z, 29.99
2022-09-25T06:55:46.042Z, 29.99
2022-09-25T06:56:46.034Z, 30.00
2022-09-25T06:57:46.108Z, 30.01
2022-09-25T06:58:46.143Z, 30.00
2022-09-25T06:59:46.122Z, 29.99
2022-09-25T07:00:46.204Z, 29.95
2022-09-25T07:01:46.349Z, 29.97
2022-09-25T07:02:46.352Z, 29.96
2022-09-25T07:03:46.274Z, 29.94
2022-09-25T07:04:46.301Z, 29.92
2022-09-25T07:05:46.361Z, 29.98
2022-09-25T07:06:46.350Z, 29.97
2022-09-25T07:07:46.401Z, 29.97
2022-09-25T07:08:46.410Z, 29.98
2022-09-25T07:09:46.450Z, 29.94
2022-09-25T07:10:46.481Z, 29.95
2022-09-25T07:11:46.555Z, 29.95
2022-09-25T07:12:46.616Z, 29.91
2022-09-25T07:13:46.609Z, 29.96
2022-09-25T07:14:46.686Z, 29.95
2022-09-25T07:15:46.728Z, 29.92
2022-09-25T07:16:46.756Z, 30.02
2022-09-25T07:17:46.738Z, 30.09
2022-09-25T07:18:46.825Z, 30.11
2022-09-25T07:19:46.774Z, 30.11
2022-09-25T07:20:46.839Z, 30.15
2022-09-25T07:21:46.841Z, 30.20
2022-09-25T07:22:46.874Z, 30.26
2022-09-25T07:23:46.908Z, 30.22
2022-09-25T07:24:46.961Z, 30.22
2022-09-25T07:25:46.979Z, 30.28
2022-09-25T07:26:47.025Z, 30.30
2022-09-25T07:27:47.060Z, 30.35
2022-09-25T07:28:47.159Z, 30.42
2022-09-25T07:29:47.140Z, 30.41
2022-09-25T07:30:47.189Z, 30.50
2022-09-25T07:31:47.196Z, 30.66
2022-09-25T07:32:47.283Z, 30.71
2022-09-25T07:33:47.265Z, 30.51
2022-09-25T07:34:47.284Z, 30.61
2022-09-25T07:35:47.384Z, 30.62
2022-09-25T07:36:47.367Z, 30.63
2022-09-25T07:37:47.373Z, 30.70
2022-09-25T07:38:47.413Z, 30.67
2022-09-25T07:39:47.447Z, 30.64
2022-09-25T07:40:47.585Z, 30.64
2022-09-25T07:41:47.587Z, 30.63
2022-09-25T07:42:47.571Z, 30.73
2022-09-25T07:43:47.640Z, 30.77
2022-09-25T07:44:48.964Z, 30.76
2022-09-25T07:45:47.725Z, 30.72
2022-09-25T07:46:47.786Z, 30.71
2022-09-25T07:47:47.719Z, 30.59
2022-09-25T07:48:47.748Z, 31.63
2022-09-25T07:49:47.784Z, 31.84
2022-09-25T07:50:47.823Z, 32.00
2022-09-25T07:51:47.878Z, 31.19
2022-09-25T07:52:47.861Z, 31.09
2022-09-25T07:53:47.967Z, 31.26
2022-09-25T07:54:47.945Z, 31.17
2022-09-25T07:55:47.950Z, 30.61
2022-09-25T07:56:48.075Z, 37.06
2022-09-25T07:57:48.034Z, 30.04
2022-09-25T07:58:48.052Z, 29.93
2022-09-25T07:59:48.071Z, 29.93
2022-09-25T08:00:48.172Z, 29.91
2022-09-25T08:01:52.868Z, 29.87
2022-09-25T08:02:48.254Z, 29.87
2022-09-25T08:03:48.242Z, 29.85
2022-09-25T08:04:48.275Z, 29.82
2022-09-25T08:05:48.319Z, 29.82
2022-09-25T08:06:48.345Z, 29.82
2022-09-25T08:07:48.437Z, 29.83
2022-09-25T08:08:48.516Z, 29.84
2022-09-25T08:09:48.524Z, 29.83
2022-09-25T08:10:48.501Z, 29.82
2022-09-25T08:11:48.582Z, 29.82
2022-09-25T08:12:48.621Z, 29.78
2022-09-25T08:13:48.609Z, 29.77
2022-09-25T08:14:48.607Z, 29.75
2022-09-25T08:15:48.692Z, 29.74
2022-09-25T08:16:48.682Z, 29.71
2022-09-25T08:17:48.758Z, 29.71
2022-09-25T08:18:48.826Z, 29.70
2022-09-25T08:19:48.812Z, 29.69
2022-09-25T08:20:48.908Z, 29.71
2022-09-25T08:21:48.888Z, 29.71
2022-09-25T08:22:48.892Z, 29.70
2022-09-25T08:23:48.994Z, 29.71
2022-09-25T08:24:48.986Z, 29.68
2022-09-25T08:25:49.040Z, 29.66
2022-09-25T08:26:49.039Z, 29.63
2022-09-25T08:27:49.137Z, 29.62
2022-09-25T08:28:49.130Z, 29.62
2022-09-25T08:29:49.175Z, 29.62
2022-09-25T08:30:49.289Z, 29.60
2022-09-25T08:31:49.258Z, 29.59
2022-09-25T08:32:49.314Z, 29.56
2022-09-25T08:33:49.307Z, 29.58
2022-09-25T08:34:49.661Z, 29.60
2022-09-25T08:35:49.385Z, 29.58
2022-09-25T08:36:49.368Z, 29.61
2022-09-25T08:37:49.377Z, 29.59
2022-09-25T08:38:49.446Z, 29.53
2022-09-25T08:39:49.519Z, 29.50
2022-09-25T08:40:49.521Z, 29.52
2022-09-25T08:41:49.546Z, 29.52
2022-09-25T08:42:49.612Z, 29.49
2022-09-25T08:43:49.607Z, 29.51
2022-09-25T08:45:16.701Z, 29.51
2022-09-25T08:45:49.708Z, 29.49
2022-09-25T08:46:49.682Z, 29.52
2022-09-25T08:47:49.744Z, 29.47
2022-09-25T08:48:49.745Z, 29.50
2022-09-25T08:49:49.860Z, 29.46
2022-09-25T08:50:49.870Z, 29.46
2022-09-25T08:51:49.929Z, 29.48
2022-09-25T08:52:49.918Z, 29.46
2022-09-25T08:53:49.951Z, 29.45
2022-09-25T08:54:49.939Z, 29.44
2022-09-25T08:55:49.983Z, 29.44
2022-09-25T08:56:50.090Z, 29.44
2022-09-25T08:57:50.100Z, 29.44
2022-09-25T08:58:50.127Z, 29.41
2022-09-25T08:59:50.149Z, 29.40
2022-09-25T09:00:50.176Z, 29.41
2022-09-25T09:01:50.266Z, 29.41
2022-09-25T09:02:50.350Z, 29.42
2022-09-25T09:03:50.264Z, 29.44
2022-09-25T09:04:50.315Z, 29.41
2022-09-25T09:05:51.801Z, 29.44
2022-09-25T09:07:08.119Z, 29.42
2022-09-25T09:07:50.426Z, 29.43
2022-09-25T09:08:50.500Z, 29.43
2022-09-25T09:09:50.492Z, 29.40
2022-09-25T09:10:50.500Z, 29.35
2022-09-25T09:11:50.572Z, 29.30
2022-09-25T09:12:50.601Z, 29.28
2022-09-25T09:13:50.635Z, 29.28
2022-09-25T09:14:50.668Z, 29.30
2022-09-25T09:15:50.787Z, 29.28
2022-09-25T09:16:50.790Z, 29.33
2022-09-25T09:17:50.783Z, 29.35
2022-09-25T09:18:50.804Z, 29.36
2022-09-25T09:19:50.827Z, 29.40
2022-09-25T09:20:50.864Z, 29.41
2022-09-25T09:21:50.943Z, 29.43
2022-09-25T09:22:50.960Z, 29.44
2022-09-25T09:23:50.966Z, 29.42
2022-09-25T09:24:51.041Z, 29.40
2022-09-25T09:25:51.022Z, 29.41
2022-09-25T09:26:51.044Z, 29.40
2022-09-25T09:27:51.100Z, 29.40
2022-09-25T09:28:51.115Z, 29.39
2022-09-25T09:29:51.156Z, 29.37
2022-09-25T09:30:51.284Z, 29.36
2022-09-25T09:31:51.209Z, 29.33
2022-09-25T09:32:51.295Z, 29.34
2022-09-25T09:33:51.277Z, 29.34
2022-09-25T09:35:05.616Z, 29.31
2022-09-25T09:35:51.334Z, 29.26
2022-09-25T09:36:51.364Z, 29.28
2022-09-25T09:37:51.424Z, 29.31
2022-09-25T09:38:51.510Z, 29.31
2022-09-25T09:39:51.485Z, 29.31
2022-09-25T09:40:51.586Z, 29.30
2022-09-25T09:41:51.543Z, 29.29
2022-09-25T09:42:51.647Z, 29.34
2022-09-25T09:43:57.190Z, 29.32
2022-09-25T09:44:51.629Z, 29.33
2022-09-25T09:45:51.708Z, 29.34
2022-09-25T09:46:51.715Z, 29.34
2022-09-25T09:47:51.756Z, 29.33
2022-09-25T09:48:51.752Z, 29.37
2022-09-25T09:49:51.774Z, 29.31
2022-09-25T09:50:52.882Z, 29.31
2022-09-25T09:51:51.861Z, 29.30
2022-09-25T09:52:51.959Z, 29.32
2022-09-25T09:53:51.940Z, 29.29
2022-09-25T09:54:52.003Z, 29.29
2022-09-25T09:55:52.056Z, 29.28
2022-09-25T09:56:52.064Z, 29.33
2022-09-25T09:57:52.077Z, 29.30
2022-09-25T09:58:52.103Z, 29.30
2022-09-25T09:59:52.204Z, 29.29
2022-09-25T10:00:52.203Z, 29.25
2022-09-25T10:01:52.340Z, 29.25
2022-09-25T10:02:52.372Z, 29.27
2022-09-25T10:03:52.259Z, 29.27
2022-09-25T10:04:52.395Z, 29.27
2022-09-25T10:05:52.412Z, 29.20
2022-09-25T10:06:52.353Z, 29.21
2022-09-25T10:07:52.437Z, 29.18
2022-09-25T10:08:52.428Z, 29.19
2022-09-25T10:09:52.432Z, 29.20
2022-09-25T10:10:52.457Z, 29.20
2022-09-25T10:11:52.491Z, 29.16
2022-09-25T10:12:52.518Z, 29.19
2022-09-25T10:13:52.537Z, 29.18
2022-09-25T10:14:52.569Z, 29.19
2022-09-25T10:15:52.682Z, 29.16
2022-09-25T10:16:52.632Z, 29.15
2022-09-25T10:17:52.651Z, 29.14
2022-09-25T10:18:52.805Z, 29.19
2022-09-25T10:19:52.801Z, 29.17
2022-09-25T10:20:52.793Z, 29.17
2022-09-25T10:21:52.871Z, 29.14
2022-09-25T10:22:52.905Z, 29.14
2022-09-25T10:23:52.949Z, 29.14
2022-09-25T10:24:52.917Z, 29.14
2022-09-25T10:25:56.046Z, 29.13
2022-09-25T10:26:53.042Z, 29.10
2022-09-25T10:27:53.016Z, 29.09
2022-09-25T10:28:53.130Z, 29.11
2022-09-25T10:29:53.110Z, 34.40
2022-09-25T10:30:53.208Z, 31.08
2022-09-25T10:31:53.141Z, 30.85
2022-09-25T10:32:57.208Z, 30.66
2022-09-25T10:33:53.225Z, 30.60
2022-09-25T10:34:53.263Z, 30.58
2022-09-25T10:35:53.390Z, 30.59
2022-09-25T10:36:53.361Z, 30.58
2022-09-25T10:37:53.427Z, 30.56
2022-09-25T10:39:04.922Z, 30.55
2022-09-25T10:39:53.431Z, 30.60
2022-09-25T10:40:53.587Z, 30.58
2022-09-25T10:41:53.512Z, 30.57
2022-09-25T10:42:53.536Z, 30.57
2022-09-25T10:43:53.637Z, 30.59
2022-09-25T10:44:57.771Z, 30.58
2022-09-25T10:45:53.655Z, 30.61
2022-09-25T10:46:53.652Z, 30.59
2022-09-25T10:47:53.706Z, 30.60
2022-09-25T10:48:53.735Z, 30.59
2022-09-25T10:49:53.852Z, 30.55
2022-09-25T10:50:53.828Z, 30.54
2022-09-25T10:51:53.825Z, 30.59
2022-09-25T10:52:53.851Z, 30.59
2022-09-25T10:53:53.874Z, 30.57
2022-09-25T10:54:53.958Z, 30.58
2022-09-25T10:55:53.961Z, 30.52
2022-09-25T10:56:53.988Z, 30.48
2022-09-25T10:57:54.005Z, 30.48
2022-09-25T10:58:54.054Z, 30.49
2022-09-25T10:59:54.085Z, 30.50
2022-09-25T11:00:54.091Z, 30.52
2022-09-25T11:01:54.370Z, 30.52
2022-09-25T11:02:54.234Z, 30.49
2022-09-25T11:03:54.205Z, 30.52
2022-09-25T11:04:54.246Z, 30.53
2022-09-25T11:05:54.277Z, 30.54
2022-09-25T11:06:54.327Z, 30.52
2022-09-25T11:07:54.361Z, 30.50
2022-09-25T11:08:54.360Z, 30.51
2022-09-25T11:09:59.764Z, 30.51
2022-09-25T11:10:54.459Z, 30.48
2022-09-25T11:11:54.520Z, 30.50
2022-09-25T11:12:54.549Z, 30.47
2022-09-25T11:13:54.539Z, 30.47
2022-09-25T11:14:54.630Z, 30.49
2022-09-25T11:15:54.665Z, 30.46
2022-09-25T11:16:54.815Z, 30.46
2022-09-25T11:17:54.670Z, 30.48
2022-09-25T11:18:54.769Z, 30.47
2022-09-25T11:19:54.737Z, 30.45
2022-09-25T11:20:54.771Z, 30.46
2022-09-25T11:21:54.802Z, 30.46
2022-09-25T11:22:54.840Z, 30.45
2022-09-25T11:23:54.859Z, 30.43
2022-09-25T11:25:00.889Z, 30.42
2022-09-25T11:25:54.947Z, 30.46
2022-09-25T11:26:54.966Z, 30.45
2022-09-25T11:27:54.994Z, 30.43
2022-09-25T11:28:55.026Z, 30.42
2022-09-25T11:29:55.060Z, 30.40
2022-09-25T11:30:55.164Z, 30.38
2022-09-25T11:31:55.176Z, 30.40
2022-09-25T11:32:55.164Z, 30.38
2022-09-25T11:33:55.202Z, 30.37
2022-09-25T11:34:55.268Z, 30.40
2022-09-25T11:35:55.285Z, 30.38
2022-09-25T11:36:55.333Z, 30.39
2022-09-25T11:37:55.366Z, 30.40
2022-09-25T11:38:55.395Z, 30.37
2022-09-25T11:39:55.397Z, 30.35
2022-09-25T11:40:55.492Z, 30.36
2022-09-25T11:41:55.462Z, 30.36
2022-09-25T11:42:55.547Z, 30.34
2022-09-25T11:43:58.081Z, 30.33
2022-09-25T11:44:55.618Z, 30.33
2022-09-25T11:45:55.640Z, 30.34
2022-09-25T11:46:55.701Z, 30.33
2022-09-25T11:47:55.654Z, 30.35
2022-09-25T11:48:55.689Z, 30.34
2022-09-25T11:49:55.713Z, 30.34
2022-09-25T11:50:55.742Z, 30.33
2022-09-25T11:51:55.772Z, 30.32
2022-09-25T11:52:55.796Z, 30.30
2022-09-25T11:54:03.305Z, 30.30
2022-09-25T11:54:55.901Z, 30.32
2022-09-25T11:55:55.973Z, 30.30
2022-09-25T11:56:55.964Z, 30.28
2022-09-25T11:57:55.988Z, 30.29
2022-09-25T11:58:56.067Z, 30.30
2022-09-25T11:59:56.096Z, 30.29
2022-09-25T12:00:56.084Z, 30.29
2022-09-25T12:01:56.170Z, 30.30
2022-09-25T12:02:56.204Z, 30.32
2022-09-25T12:03:56.203Z, 30.32
2022-09-25T12:04:56.191Z, 30.34
2022-09-25T12:05:56.226Z, 30.37
2022-09-25T12:06:56.270Z, 30.37
2022-09-25T12:07:56.307Z, 30.35
2022-09-25T12:08:56.362Z, 30.32
2022-09-25T12:09:56.375Z, 30.30
2022-09-25T12:10:56.463Z, 30.31
2022-09-25T12:11:56.439Z, 30.32
2022-09-25T12:12:56.463Z, 30.30
2022-09-25T12:13:56.502Z, 30.27
2022-09-25T12:14:56.530Z, 30.27
2022-09-25T12:15:56.588Z, 30.26
2022-09-25T12:16:56.697Z, 30.26
2022-09-25T12:17:56.670Z, 30.27
2022-09-25T12:18:56.686Z, 30.23
2022-09-25T12:19:56.717Z, 30.24
2022-09-25T12:20:56.738Z, 30.28
2022-09-25T12:21:56.759Z, 30.33
2022-09-25T12:22:56.805Z, 30.32
2022-09-25T12:23:56.853Z, 30.32
2022-09-25T12:24:56.941Z, 30.30
2022-09-25T12:25:57.001Z, 30.28
2022-09-25T12:26:57.033Z, 30.26
2022-09-25T12:27:56.997Z, 30.27
2022-09-25T12:28:57.043Z, 30.28